Terminal Aerodrome Forecast
Issued by NWS

Home | Current Version | Previous Version | Text Only | Print | Product List | Glossary On
Versions: 1 2 3 4 5 6 7 8 9 10 11 12 13 14 15 16 17 18 19 20
000
FTUS44 KLZK 290500
TAFPBF
TAF
KPBF 290533Z 2906/3006 VRB03KT P6SM BKN250
      TEMPO 2906/2910 5SM BR SCT020
     FM291000 VRB03KT 5SM BR SCT005 SCT050 BKN250
      TEMPO 2910/2913 1SM BR BKN005
     FM291400 21005KT P6SM VCSH SCT020 BKN050 BKN250
     FM291800 17006KT P6SM VCTS SCT030CB BKN100 BKN250=

USA.gov is the U.S. government's official web portal to all federal, state and local government web resources and services.